x

Western Hawaii - 205 Nm Sw Of Honolulu, Hi (51003) Wave Buoy

7:50pm - Tue 25th Apr 2017 All times are HST. -10 hours from GMT.

  • Sig Wave height 6.2ft
  • Swell Direction
  • Peak Period 9s
  • Average Period 7s
  • Wind
    16mph, 20mph gusts
  • Sea Temp 79°f
  • Air Temp 78°f
  • Sea Pressure 1017mb
  • Western  Hawaii - 205 Nm Sw Of Honolulu, Hi
  • Western  Hawaii - 205 Nm Sw Of Honolulu, Hi

More Historic Weather Station data

Upgrade to MSW Pro to gain access to the past 30 days of data for over 8000 Wavebouys and Weather Stations around the globe.

Join Pro

Comparision Forecast

View Surf forecast
   
Tue 04/25 7:50pm 6ft 9s 7s 16 20 mph 1017mb 79f 78f
6:50pm 6ft 10s 7s 16 18 mph 1016.3mb 79f 78f
5:50pm 6ft 10s 7s 11 13 mph 1015.7mb 79f 78f
4:50pm 6.5ft 10s 7s 11 13 mph 1015.5mb 79f 78f
3:50pm 6ft 10s 6s 11 13 mph 1015.5mb 79f 78f
2:50pm 6.5ft 10s 7s 13 16 mph 1015.9mb 79f 78f
1:50pm 6ft 9s 7s 11 16 mph 1016.7mb 79f 78f
12:50pm 6ft 10s 6s 13 18 mph 1017.5mb 79f 78f
11:50am 6ft 10s 7s 9 11 mph 1018.2mb 79f 78f
10:50am 6.5ft 10s 6s 11 13 mph 1018.7mb 79f 78f
9:50am 6.5ft 10s 6s 13 18 mph 1018.6mb 79f 76f
8:50am 6ft 10s 7s 16 20 mph 1018mb 79f 78f
7:50am 6ft 10s 7s 13 16 mph 1017.8mb 79f 77f
6:50am 6.5ft 9s 7s 13 16 mph 1017.3mb 79f 77f
5:50am 6.5ft 10s 7s 11 13 mph 1017mb 79f 77f
4:50am 6.5ft 10s 7s 13 16 mph 1016.6mb 79f 77f
3:50am 7ft 10s 7s 13 16 mph 1016.6mb 79f 77f
2:50am 6.5ft 10s 7s 13 16 mph 1017mb 79f 77f
1:50am 7ft 9s 7s 13 16 mph 1017.7mb 79f 77f
12:50am 6.5ft 9s 7s 13 16 mph 1018mb 79f 77f
Mon 04/24 11:50pm 7ft 9s 6s 13 16 mph 1018.4mb 79f 78f
10:50pm 6ft 9s 6s 13 18 mph 1018.4mb 79f 78f
9:50pm 6.5ft 8s 6s 13 18 mph 1018.1mb 79f 78f
8:50pm 6.5ft 10s 6s 13 16 mph 1017.6mb 79f 78f
7:50pm 6.5ft 9s 7s 13 18 mph 1017.1mb 79f 78f
6:50pm 6.5ft 9s 6s 13 16 mph 1016.3mb 79f 78f
5:50pm 6ft 8s 6s 16 20 mph 1015.8mb 79f 78f
4:50pm 6.5ft 8s 6s 16 20 mph 1015.5mb 79f 78f
3:50pm 7ft 7s 6s 18 20 mph 1015.6mb 79f 78f
2:50pm 7ft 9s 6s 18 20 mph 1016.1mb 79f 78f
1:50pm 6.5ft 8s 6s 20 22 mph 1016.6mb 79f 78f
12:50pm 6.5ft 9s 6s 16 18 mph 1017.4mb 79f 77f
11:50am 6.5ft 8s 6s 13 18 mph 1018.2mb 79f 77f
10:50am 6ft 9s 6s 13 16 mph 1018.6mb 79f 77f
9:50am 6.5ft 8s 6s 13 18 mph 1018.7mb 79f 74f
8:50am 6ft 8s 7s 27 34 mph 1018.4mb 79f 70f
7:50am 6ft 7s 7s 9 11 mph 1017.6mb 79f 76f
6:50am 6ft 8s 7s 9 11 mph 1016.9mb 79f 75f
5:50am 5.5ft 8s 7s 11 16 mph 1016.1mb 79f 78f
4:50am 6ft 8s 6s 9 11 mph 1015.4mb 79f 77f
3:50am 6ft 11s 7s 11 13 mph 1015.3mb 79f 78f
2:50am 6ft 8s 6s 13 16 mph 1015.7mb 79f 78f
1:50am 6.5ft 8s 7s 13 16 mph 1016.1mb 79f 78f
12:50am 6ft 8s 6s 13 16 mph 1016.4mb 79f 78f
Sun 04/23 11:50pm 6.5ft 9s 7s 13 18 mph 1016.9mb 79f 78f
10:50pm 6.5ft 8s 7s 16 18 mph 1016.8mb 79f 78f
9:50pm 6.5ft 8s 7s 13 18 mph 1016.6mb 79f 78f
8:50pm 6ft 8s 7s 16 18 mph 1016.1mb 79f 78f
7:50pm 6.5ft 9s 7s 13 16 mph 1015.6mb 79f 78f
6:50pm 6ft 8s 7s 11 16 mph 1015.2mb 79f 78f
5:50pm 6.5ft 8s 7s 13 16 mph 1014.7mb 80f 79f
4:50pm 7ft 11s 7s 11 13 mph 1015mb 80f 79f
3:50pm 6.5ft 11s 7s 13 16 mph 1015mb 80f 79f
2:50pm 7ft 11s 7s 11 16 mph 1015.5mb 80f 79f
1:50pm 7ft 8s 7s 13 16 mph 1016.1mb 80f 78f
12:50pm 7.5ft 11s 8s 11 13 mph 1017.2mb 80f 78f
11:50am 7ft 12s 7s 13 16 mph 1017.6mb 80f 78f
10:50am 7ft 11s 7s 9 11 mph 1018mb 80f 78f
9:50am 7ft 12s 8s 9 11 mph 1017.9mb 79f 78f
8:50am 7ft 8s 7s 9 11 mph 1017.7mb 79f 78f
6:50am 6.5ft 12s 7s 9 11 mph 1016.5mb 79f 78f
5:50am 7ft 11s 8s 9 11 mph 1015.8mb 79f 77f
4:50am 7ft 11s 7s 9 11 mph 1015.4mb 79f 78f
3:50am 7.5ft 11s 8s 9 11 mph 1015.3mb 79f 78f
2:50am 7.5ft 11s 7s 9 13 mph 1015.5mb 79f 78f
1:50am 7.5ft 11s 7s 11 13 mph 1015.9mb 79f 78f
12:50am 8ft 12s 7s 11 13 mph 1016.7mb 79f 78f
Sat 04/22 11:50pm 7.5ft 12s 7s 11 16 mph 1017.3mb 79f 78f
10:50pm 7.5ft 12s 8s 11 16 mph 1017.2mb 79f 78f
9:50pm 7ft 12s 8s 11 16 mph 1017.2mb 79f 79f
8:50pm 8ft 12s 8s 13 18 mph 1016.8mb 79f 78f
7:50pm 7.5ft 11s 8s 9 13 mph 1016.3mb 79f 78f
6:50pm 8ft 11s 8s 11 13 mph 1015.4mb 79f 78f
5:50pm 8.5ft 12s 8s 9 11 mph 1015mb 80f 78f
4:50pm 8ft 13s 8s 9 13 mph 1014.6mb 80f 78f
3:50pm 7.5ft 12s 8s 11 13 mph 1014.5mb 80f 78f
1:50pm 8ft 13s 8s 11 13 mph 1016mb 80f 78f
12:50pm 7.5ft 13s 8s 9 11 mph 1016.8mb 79f 78f
11:50am 8.5ft 13s 8s 11 16 mph 1017mb 79f 78f
10:50am 8ft 12s 8s 13 18 mph 1017.3mb 79f 78f
9:50am 7.5ft 12s 8s 13 18 mph 1017.3mb 79f 78f
8:50am 8ft 13s 8s 13 18 mph 1017.3mb 79f 78f
7:50am 8.5ft 13s 9s 13 18 mph 1016.9mb 79f 78f